Aviation Digital Data Service (ADDS)

Output produced by METARs form (2124 UTC 18 April 2014)
found at http://www.aviationweather.gov/adds/metars/
 
KROW 182051Z 16017KT 10SM CLR 21/09 A3009 RMK AO2 SLP151 T02110089 56028
KROW 181951Z 14017G24KT 10SM CLR 19/09 A3012 RMK AO2 SLP163 T01940089
KROW 181851Z 16014G23KT 10SM CLR 18/09 A3015 RMK AO2 SLP172 T01830089
KROW 181824Z 16013G20KT 10SM FEW019 16/09 A3017 RMK AO2 T01610089
KROW 181751Z 16015G21KT 10SM BKN017 15/08 A3019 RMK AO2 SLP186 T01500083 10156 20094 58009
KROW 181732Z 16014KT 10SM OVC016 14/08 A3019 RMK AO2 T01440083
KROW 181651Z 15009KT 10SM OVC013 13/08 A3020 RMK AO2 SLP194 T01280083
KROW 181603Z 14006KT 8SM OVC010 12/08 A3021 RMK AO2 CIG 009V013 T01170078
KROW 181551Z 15007KT 7SM OVC009 11/08 A3021 RMK AO2 SLP196 T01110078
KROW 181532Z 16008KT 7SM OVC010 11/07 A3021 RMK AO2 T01060072
KROW 181519Z 16006KT 7SM OVC008 11/07 A3022 RMK AO2 CIG 008V012 T01060072
KROW 181451Z 14009KT 8SM SCT008 OVC018 10/07 A3022 RMK AO2 SLP198 T01000072 51007
KROW 181355Z 14010KT 7SM SCT009 OVC016 09/07 A3022 RMK AO2 T00940067
KROW 181351Z 15011KT 7SM OVC014 09/07 A3022 RMK AO2 SLP196 T00940067
KROW 181314Z 15009KT 9SM OVC014 09/06 A3021 RMK AO2 T00940061
KROW 181251Z 15011KT 10SM OVC016 10/06 A3021 RMK AO2 SLP188 T01000061
KROW 181151Z 16008KT 10SM OVC018 10/05 A3019 RMK AO2 SLP183 T01000050 10122 20078 58001
KROW 181051Z AUTO 18009KT 10SM BKN019 OVC028 10/05 A3020 RMK AO2 SLP184 T01000050
KROW 181033Z AUTO 18011KT 10SM BKN020 OVC030 10/05 A3020 RMK AO2 T01000050
KROW 180951Z AUTO 17009KT 10SM BKN032 09/04 A3020 RMK AO2 SLP185 T00940044
KROW 180851Z AUTO 18008KT 10SM CLR 09/04 A3020 RMK AO2 SLP187 T00890039 58001
KROW 180751Z AUTO 18007KT 10SM CLR 09/03 A3020 RMK AO2 SLP188 T00940028
KROW 180651Z AUTO 13005KT 10SM CLR 11/03 A3021 RMK AO2 SLP191 T01060033 402280089
KROW 180551Z AUTO 14008KT 10SM CLR 12/03 A3020 RMK AO2 SLP190 T01220033 10222 20117 53022
KROW 180451Z AUTO 09007KT 10SM CLR 13/01 A3017 RMK AO2 SLP181 T01280006
KROW 180351Z AUTO 07006KT 10SM CLR 15/M01 A3016 RMK AO2 SLP173 T01501006
KROW 180251Z AUTO 07003KT 10SM CLR 16/M01 A3013 RMK AO2 SLP167 T01611011 53012
KROW 180151Z 04004KT 10SM CLR 18/M01 A3011 RMK AO2 SLP158 T01831011
KROW 180051Z 05005KT 10SM CLR 21/M02 A3009 RMK AO2 SLP152 T02111017
KROW 172351Z 02008KT 10SM CLR 22/M01 A3009 RMK AO2 SLP148 T02221011 10228 20167 55008
KROW 172251Z AUTO 03007KT 010V070 10SM CLR 22/M02 A3009 RMK AO2 SLP146 T02221017
KROW 172151Z AUTO 01014G18KT 10SM CLR 22/M01 A3010 RMK AO2 SLP145 T02221011
KROW 181725Z 1818/1918 16010KT P6SM BKN015 
     FM181900 16014G22KT P6SM OVC200 
     FM190200 15010KT P6SM BKN150 
     FM190600 14010KT P6SM VCSH SCT050 BKN080